Time;durP1;ratioP1;P1;durP2;ratioP2;P2;SDS_P1;SDS_P2;PMS_P1;PMS_P2;Temp;Humidity;BMP_temperature;BMP_pressure;BME280_temperature;BME280_humidity;BME280_pressure;Samples;Min_cycle;Max_cycle;Signal;HPM_P1;HPM_P2
2023/04/18 00:01:13;;;;;;;23.47;22.07;;;11.70;31.10;;;;;;5001000;28;20964;-59
2023/04/18 00:03:39;;;;;;;21.37;20.07;;;11.70;31.10;;;;;;5001478;28;20197;-59
2023/04/18 00:06:05;;;;;;;21.67;20.20;;;11.80;30.80;;;;;;5001801;28;20185;-59
2023/04/18 00:08:31;;;;;;;20.93;19.53;;;11.80;30.90;;;;;;5000309;28;20211;-58
2023/04/18 00:10:57;;;;;;;22.10;20.60;;;11.70;31.40;;;;;;5002390;28;20474;-59
2023/04/18 00:13:23;;;;;;;21.83;20.43;;;11.80;31.10;;;;;;5003146;28;20933;-59
2023/04/18 00:15:48;;;;;;;20.37;18.97;;;11.80;30.80;;;;;;5000961;28;20180;-59
2023/04/18 00:18:16;;;;;;;20.33;19.03;;;11.80;30.30;;;;;;5000214;28;20189;-58
2023/04/18 00:20:42;;;;;;;20.10;18.90;;;11.80;30.20;;;;;;5002220;28;20280;-59
2023/04/18 00:23:08;;;;;;;21.60;20.20;;;11.90;30.10;;;;;;5001204;28;20519;-59
2023/04/18 00:25:33;;;;;;;22.20;20.80;;;11.90;30.20;;;;;;4999833;28;20188;-59
2023/04/18 00:27:59;;;;;;;21.47;20.07;;;11.90;30.00;;;;;;4999670;28;20205;-59
2023/04/18 00:30:25;;;;;;;20.00;18.80;;;11.90;30.10;;;;;;5002506;28;20601;-59
2023/04/18 00:32:51;;;;;;;20.47;19.20;;;11.90;30.20;;;;;;5000343;28;20269;-59
2023/04/18 00:35:18;;;;;;;22.37;20.83;;;11.90;29.90;;;;;;5001464;28;20574;-59
2023/04/18 00:37:44;;;;;;;20.90;19.50;;;11.90;30.20;;;;;;5001876;28;20188;-59
2023/04/18 00:40:10;;;;;;;20.43;19.00;;;11.90;30.20;;;;;;5001677;28;20728;-58
2023/04/18 00:42:35;;;;;;;20.63;19.33;;;11.80;30.30;;;;;;5003405;28;20185;-59
2023/04/18 00:45:01;;;;;;;21.93;20.60;;;11.80;30.50;;;;;;5004386;28;20750;-58
2023/04/18 00:47:27;;;;;;;21.87;20.47;;;11.80;30.70;;;;;;5003395;28;20173;-58
2023/04/18 00:49:53;;;;;;;21.10;19.70;;;11.80;30.70;;;;;;5004210;28;20539;-58
2023/04/18 00:52:20;;;;;;;21.70;20.40;;;11.80;30.40;;;;;;5004166;28;20181;-58
2023/04/18 00:54:46;;;;;;;21.83;20.50;;;11.90;30.40;;;;;;5004706;28;20404;-59
2023/04/18 00:57:12;;;;;;;21.27;19.77;;;11.80;30.60;;;;;;5004992;28;20523;-58
2023/04/18 00:59:38;;;;;;;20.43;19.13;;;11.90;30.40;;;;;;5003802;28;20412;-59
2023/04/18 01:02:04;;;;;;;20.23;19.03;;;11.90;30.10;;;;;;5004625;28;20435;-58
2023/04/18 01:04:33;;;;;;;20.50;19.10;;;11.90;30.10;;;;;;5002455;28;20251;-58
2023/04/18 01:07:00;;;;;;;21.50;20.03;;;12.00;30.10;;;;;;5003014;28;20803;-58
2023/04/18 01:09:27;;;;;;;21.40;19.90;;;12.00;29.90;;;;;;5004350;28;20928;-58
2023/04/18 01:11:52;;;;;;;18.93;17.63;;;12.00;30.00;;;;;;5002361;28;20447;-58
2023/04/18 01:14:18;;;;;;;20.37;19.07;;;12.00;30.00;;;;;;5002459;28;20424;-59
2023/04/18 01:16:46;;;;;;;20.83;19.67;;;12.00;30.00;;;;;;5001962;28;20187;-59
2023/04/18 01:19:12;;;;;;;20.97;19.70;;;12.00;30.10;;;;;;5002352;28;20451;-59
2023/04/18 01:21:42;;;;;;;20.33;19.13;;;12.00;30.20;;;;;;5002932;28;20424;-59
2023/04/18 01:24:16;;;;;;;21.80;20.40;;;11.90;29.90;;;;;;5002003;28;20416;-58
2023/04/18 01:26:43;;;;;;;19.97;18.60;;;11.90;30.00;;;;;;5003578;28;20425;-58
2023/04/18 01:29:10;;;;;;;19.50;18.03;;;11.90;30.20;;;;;;5004305;28;20555;-57
2023/04/18 01:31:36;;;;;;;18.93;17.73;;;11.90;30.10;;;;;;5002872;28;20422;-58
2023/04/18 01:34:03;;;;;;;20.50;19.20;;;11.90;30.00;;;;;;5001978;28;20998;-59
2023/04/18 01:36:30;;;;;;;20.33;19.03;;;11.80;30.70;;;;;;5002664;28;20420;-58
2023/04/18 01:38:57;;;;;;;19.57;18.37;;;11.80;30.50;;;;;;5000442;28;20435;-58
2023/04/18 01:44:44;;;;;;;19.87;18.37;;;11.90;30.20;;;;;;5003965;28;20427;-59
2023/04/18 01:47:10;;;;;;;20.33;19.07;;;11.90;30.70;;;;;;5002486;28;20917;-59
2023/04/18 01:49:35;;;;;;;19.10;17.90;;;11.90;30.10;;;;;;5002330;28;20208;-59
2023/04/18 01:52:01;;;;;;;19.83;18.63;;;12.00;30.10;;;;;;4999754;28;20170;-58
2023/04/18 01:54:27;;;;;;;20.00;18.73;;;11.90;30.20;;;;;;5000247;28;20178;-59
2023/04/18 01:56:52;;;;;;;20.30;19.00;;;11.90;30.10;;;;;;4999381;28;20277;-58
2023/04/18 01:59:18;;;;;;;20.30;19.00;;;11.90;30.00;;;;;;5001414;28;20528;-58
2023/04/18 02:01:43;;;;;;;20.00;18.60;;;12.00;30.00;;;;;;5001971;28;20181;-59
2023/04/18 02:04:09;;;;;;;20.40;19.00;;;11.80;30.00;;;;;;5000831;28;20231;-58
2023/04/18 02:06:35;;;;;;;20.17;19.00;;;11.80;30.30;;;;;;4998645;28;20173;-59
2023/04/18 02:09:00;;;;;;;19.40;18.27;;;11.80;30.00;;;;;;4999988;28;20208;-58
2023/04/18 02:11:26;;;;;;;18.87;17.67;;;11.80;30.30;;;;;;4998995;28;20619;-58
2023/04/18 02:13:51;;;;;;;20.00;18.60;;;11.80;30.00;;;;;;5000245;28;21546;-59
2023/04/18 02:16:17;;;;;;;20.33;19.00;;;11.80;30.10;;;;;;5000386;28;20173;-59
2023/04/18 02:18:43;;;;;;;20.70;19.43;;;11.70;30.10;;;;;;5000331;28;20789;-58
2023/04/18 02:21:10;;;;;;;20.50;19.00;;;11.60;30.80;;;;;;5000380;28;20185;-59
2023/04/18 02:23:35;;;;;;;22.20;20.80;;;11.70;30.80;;;;;;4999263;28;20231;-59
2023/04/18 02:26:01;;;;;;;18.80;17.70;;;11.70;30.60;;;;;;5001843;28;20898;-59
2023/04/18 02:28:26;;;;;;;20.77;19.47;;;11.70;30.50;;;;;;5000381;28;20248;-58
2023/04/18 02:30:52;;;;;;;19.00;17.87;;;11.70;30.50;;;;;;5000798;28;20220;-59
2023/04/18 02:33:18;;;;;;;21.50;20.10;;;11.80;30.50;;;;;;4999215;28;20715;-59
2023/04/18 02:35:43;;;;;;;20.07;18.77;;;11.70;30.30;;;;;;4998509;28;20264;-58
2023/04/18 02:38:09;;;;;;;20.10;18.80;;;11.80;30.20;;;;;;5001021;28;20204;-58
2023/04/18 02:40:35;;;;;;;19.13;18.03;;;11.70;30.30;;;;;;4998444;28;20203;-58
2023/04/18 02:43:01;;;;;;;20.03;18.80;;;11.70;30.00;;;;;;4999431;28;20181;-59
2023/04/18 02:45:27;;;;;;;20.37;19.07;;;11.50;31.10;;;;;;5001282;28;20181;-58
2023/04/18 02:47:52;;;;;;;19.77;18.57;;;11.50;31.30;;;;;;4999098;28;20456;-59
2023/04/18 02:50:18;;;;;;;19.63;18.23;;;11.50;30.90;;;;;;5000045;28;20263;-59
2023/04/18 02:52:43;;;;;;;20.17;18.70;;;11.60;31.00;;;;;;5001894;28;20825;-59
2023/04/18 02:55:09;;;;;;;19.67;18.27;;;11.60;30.80;;;;;;5000546;28;20522;-58
2023/04/18 02:57:35;;;;;;;20.60;19.40;;;11.60;30.50;;;;;;4998451;28;20178;-58
2023/04/18 03:00:00;;;;;;;19.93;18.63;;;11.60;30.30;;;;;;4999711;28;20208;-59
2023/04/18 03:02:26;;;;;;;20.10;18.80;;;11.60;30.40;;;;;;4999865;28;20613;-58
2023/04/18 03:04:51;;;;;;;19.27;17.80;;;11.60;30.40;;;;;;4998369;28;20188;-58
2023/04/18 03:07:17;;;;;;;20.73;19.33;;;11.60;30.20;;;;;;4998737;28;20181;-59
2023/04/18 03:09:43;;;;;;;19.00;17.60;;;11.60;30.30;;;;;;4998406;28;20205;-59
2023/04/18 03:12:08;;;;;;;21.50;20.20;;;11.60;30.50;;;;;;4998476;28;20280;-59
2023/04/18 03:14:34;;;;;;;21.13;19.70;;;11.50;30.30;;;;;;4997885;28;20173;-59
2023/04/18 03:17:00;;;;;;;19.47;18.20;;;11.60;30.40;;;;;;4998778;28;20539;-59
2023/04/18 03:19:25;;;;;;;19.60;18.20;;;11.50;30.90;;;;;;4998270;28;20424;-59
2023/04/18 03:21:51;;;;;;;21.53;20.10;;;11.60;30.60;;;;;;4999888;28;20653;-59
2023/04/18 03:24:17;;;;;;;20.60;19.37;;;11.50;30.40;;;;;;5000740;28;20185;-59
2023/04/18 03:26:42;;;;;;;20.07;18.87;;;11.50;30.80;;;;;;4999846;28;20284;-58
2023/04/18 03:29:08;;;;;;;20.60;19.40;;;11.30;31.80;;;;;;4998904;28;20219;-59
2023/04/18 03:31:34;;;;;;;22.00;20.40;;;11.20;31.70;;;;;;5000978;28;20184;-58
2023/04/18 03:33:59;;;;;;;21.23;19.93;;;11.30;31.40;;;;;;5000356;28;20177;-58
2023/04/18 03:36:27;;;;;;;20.13;18.93;;;11.40;30.80;;;;;;4999621;28;20196;-59
2023/04/18 03:38:53;;;;;;;20.30;18.87;;;11.30;31.00;;;;;;5001481;28;20224;-59
2023/04/18 03:41:19;;;;;;;21.07;19.87;;;11.40;30.90;;;;;;5000118;28;20428;-59
2023/04/18 03:43:45;;;;;;;20.60;19.30;;;11.40;30.70;;;;;;5001893;28;20423;-59
2023/04/18 03:46:10;;;;;;;20.63;19.43;;;11.30;31.40;;;;;;5001733;28;20177;-59
2023/04/18 03:48:36;;;;;;;19.57;18.37;;;11.20;31.60;;;;;;5001866;28;20201;-59
2023/04/18 03:51:02;;;;;;;19.80;18.60;;;11.20;32.10;;;;;;5004628;28;20177;-59
2023/04/18 03:53:27;;;;;;;20.23;18.93;;;11.40;31.60;;;;;;5005510;28;20185;-59
2023/04/18 03:55:53;;;;;;;19.60;18.40;;;11.20;31.70;;;;;;5004700;28;20416;-59
2023/04/18 03:58:22;;;;;;;20.80;19.40;;;11.20;32.20;;;;;;5006284;28;20177;-59
2023/04/18 04:00:51;;;;;;;20.20;19.00;;;11.30;31.00;;;;;;5007389;28;20235;-58
2023/04/18 04:03:17;;;;;;;21.40;19.77;;;11.40;31.00;;;;;;5006962;28;20956;-57
2023/04/18 04:05:43;;;;;;;21.27;19.87;;;11.40;30.60;;;;;;5007645;28;20466;-59
2023/04/18 04:08:09;;;;;;;20.17;18.77;;;11.40;30.90;;;;;;5008060;28;20979;-59
2023/04/18 04:10:35;;;;;;;20.53;19.07;;;11.50;30.70;;;;;;5007674;28;20184;-58
2023/04/18 04:13:00;;;;;;;19.93;18.53;;;11.60;30.50;;;;;;5007205;28;20264;-59
2023/04/18 04:15:26;;;;;;;20.50;19.20;;;11.50;30.30;;;;;;5008758;28;20184;-59
2023/04/18 04:17:51;;;;;;;19.90;18.70;;;11.50;30.30;;;;;;5013168;28;20271;-59
2023/04/18 04:20:22;;;;;;;21.33;19.93;;;11.30;30.90;;;;;;5012801;28;20181;-57
2023/04/18 04:22:49;;;;;;;22.60;21.10;;;11.20;31.40;;;;;;5013148;28;20669;-58
2023/04/18 04:25:16;;;;;;;20.80;19.40;;;11.20;31.50;;;;;;5013101;28;20416;-59
2023/04/18 04:27:42;;;;;;;21.07;19.67;;;11.30;31.20;;;;;;5012886;28;20779;-58
2023/04/18 04:30:08;;;;;;;20.03;18.73;;;11.30;31.00;;;;;;5012945;28;20416;-59
2023/04/18 04:32:34;;;;;;;18.90;17.70;;;11.40;30.80;;;;;;4995505;28;20180;-59
2023/04/18 04:35:00;;;;;;;19.70;18.40;;;11.40;31.10;;;;;;5013593;28;20412;-59
2023/04/18 04:37:26;;;;;;;20.73;19.33;;;11.50;30.60;;;;;;5013956;28;20672;-59
2023/04/18 04:39:52;;;;;;;21.27;19.73;;;11.40;30.40;;;;;;5013408;28;20190;-59
2023/04/18 04:42:18;;;;;;;19.80;18.50;;;11.40;30.20;;;;;;5013603;28;20777;-58
2023/04/18 04:44:45;;;;;;;20.50;19.00;;;11.40;31.20;;;;;;5013460;28;20174;-58
2023/04/18 04:47:10;;;;;;;19.20;18.00;;;11.30;30.90;;;;;;5013320;28;20491;-58
2023/04/18 04:49:36;;;;;;;20.60;19.37;;;11.30;30.80;;;;;;5014046;28;20478;-59
2023/04/18 04:52:02;;;;;;;20.53;19.23;;;11.40;30.60;;;;;;5013523;28;20173;-58
2023/04/18 04:54:27;;;;;;;21.20;19.67;;;11.40;30.40;;;;;;5014037;28;20223;-58
2023/04/18 04:56:53;;;;;;;19.10;18.00;;;11.40;30.00;;;;;;5013904;28;20169;-59
2023/04/18 04:59:18;;;;;;;20.90;19.70;;;11.40;30.00;;;;;;5013235;28;20193;-59
2023/04/18 05:01:45;;;;;;;23.97;22.50;;;11.40;31.00;;;;;;5013297;28;20641;-59
2023/04/18 05:04:11;;;;;;;22.40;21.00;;;11.40;30.60;;;;;;5012883;28;20272;-59
2023/04/18 05:06:37;;;;;;;24.40;22.90;;;11.30;30.30;;;;;;5013665;28;20495;-59
2023/04/18 05:09:02;;;;;;;24.33;22.67;;;11.30;30.50;;;;;;5013501;28;20510;-59
2023/04/18 05:11:28;;;;;;;24.90;23.40;;;11.20;30.80;;;;;;5013093;28;20177;-59
2023/04/18 05:13:53;;;;;;;24.47;22.77;;;11.20;30.60;;;;;;5012979;28;20180;-59
2023/04/18 05:16:19;;;;;;;22.53;21.03;;;11.00;31.80;;;;;;5013494;28;20649;-59
2023/04/18 05:18:45;;;;;;;24.73;23.03;;;11.10;31.40;;;;;;5012709;28;20181;-59
2023/04/18 05:21:10;;;;;;;23.90;22.53;;;11.20;31.20;;;;;;5012947;28;20192;-58
2023/04/18 05:23:36;;;;;;;24.03;22.73;;;11.30;30.90;;;;;;5013384;28;20186;-59
2023/04/18 05:26:05;;;;;;;25.30;23.70;;;11.30;30.70;;;;;;5012511;28;20181;-58
2023/04/18 05:28:31;;;;;;;27.17;25.20;;;11.30;30.60;;;;;;5011681;28;20595;-58
2023/04/18 05:31:00;;;;;;;26.20;24.47;;;11.20;30.80;;;;;;5012428;28;20417;-65
2023/04/18 05:33:30;;;;;;;26.67;25.07;;;11.20;31.10;;;;;;5012346;28;20432;-60
2023/04/18 05:35:56;;;;;;;26.50;24.80;;;11.20;31.30;;;;;;5012186;28;20428;-60
2023/04/18 05:38:22;;;;;;;25.03;23.53;;;11.20;31.10;;;;;;5013191;28;20482;-60
2023/04/18 05:40:49;;;;;;;28.47;26.57;;;11.10;31.30;;;;;;5011355;28;20465;-60
2023/04/18 05:43:18;;;;;;;24.93;23.40;;;11.20;31.40;;;;;;5011887;28;20177;-60
2023/04/18 05:45:44;;;;;;;25.27;23.87;;;11.20;31.40;;;;;;5012690;28;20556;-60
2023/04/18 05:48:10;;;;;;;24.80;23.07;;;11.20;31.30;;;;;;5012272;28;20459;-60
2023/04/18 05:50:36;;;;;;;24.77;23.20;;;11.20;30.80;;;;;;5012286;28;20421;-60
2023/04/18 05:53:01;;;;;;;24.37;23.00;;;11.20;31.00;;;;;;5013085;28;20983;-60
2023/04/18 05:55:27;;;;;;;22.40;20.90;;;11.20;31.30;;;;;;5012560;28;20177;-60
2023/04/18 05:57:53;;;;;;;25.93;24.03;;;11.30;31.40;;;;;;5012465;28;20173;-57
2023/04/18 06:00:18;;;;;;;24.47;22.83;;;11.30;31.60;;;;;;5012550;28;20173;-60
2023/04/18 06:02:44;;;;;;;22.37;20.87;;;11.30;32.30;;;;;;5011686;28;20193;-60
2023/04/18 06:05:11;;;;;;;22.67;21.27;;;11.40;31.80;;;;;;5012448;28;20209;-60
2023/04/18 06:07:37;;;;;;;22.00;20.60;;;11.40;31.70;;;;;;5012307;28;20423;-60
2023/04/18 06:10:06;;;;;;;22.30;20.90;;;11.40;31.20;;;;;;5012424;28;20420;-60
2023/04/18 06:12:32;;;;;;;21.07;19.57;;;11.40;31.40;;;;;;5011803;28;20601;-61
2023/04/18 06:14:57;;;;;;;21.80;20.50;;;11.40;31.30;;;;;;5012301;28;20444;-58
2023/04/18 06:17:23;;;;;;;22.83;21.17;;;11.30;31.30;;;;;;5012128;28;20662;-59
2023/04/18 06:19:49;;;;;;;21.93;20.53;;;11.30;31.10;;;;;;5013236;28;20219;-59
2023/04/18 06:22:14;;;;;;;21.07;19.77;;;11.30;31.40;;;;;;5011260;28;20181;-60
2023/04/18 06:24:40;;;;;;;20.57;19.27;;;11.30;31.30;;;;;;5009981;28;20213;-60
2023/04/18 06:27:06;;;;;;;22.63;21.13;;;11.20;31.10;;;;;;5009790;28;20288;-59
2023/04/18 06:29:32;;;;;;;21.73;20.33;;;11.20;32.10;;;;;;5010605;28;20197;-60
2023/04/18 06:31:58;;;;;;;22.00;20.20;;;11.10;31.40;;;;;;5011316;28;20181;-60
2023/04/18 06:34:24;;;;;;;21.57;19.93;;;11.10;32.10;;;;;;5011551;28;20499;-60
2023/04/18 06:36:51;;;;;;;22.87;21.47;;;11.10;32.50;;;;;;5008587;28;20416;-60
2023/04/18 06:39:16;;;;;;;22.77;21.20;;;11.20;32.00;;;;;;5010129;28;20416;-60
2023/04/18 06:41:42;;;;;;;23.73;21.83;;;11.20;31.50;;;;;;5010736;28;20787;-59
2023/04/18 06:44:07;;;;;;;25.07;23.47;;;11.20;31.90;;;;;;5007243;28;20588;-60
2023/04/18 06:46:33;;;;;;;23.30;20.90;;;11.10;32.40;;;;;;5010658;28;20181;-59
2023/04/18 06:48:59;;;;;;;22.93;21.33;;;11.20;32.50;;;;;;5011519;28;20536;-59
2023/04/18 06:51:25;;;;;;;23.47;22.00;;;11.20;31.60;;;;;;5008802;28;20683;-59
2023/04/18 06:53:54;;;;;;;22.77;21.37;;;11.20;31.50;;;;;;5008915;28;20184;-59
2023/04/18 06:56:20;;;;;;;23.07;21.47;;;11.20;31.60;;;;;;5010993;28;20420;-60
2023/04/18 06:58:46;;;;;;;21.90;20.50;;;11.20;32.10;;;;;;5011326;28;20420;-59
2023/04/18 07:01:12;;;;;;;22.83;21.37;;;11.20;32.20;;;;;;5012095;28;20474;-59
2023/04/18 07:03:37;;;;;;;21.67;20.27;;;11.30;31.90;;;;;;5010976;28;20432;-59
2023/04/18 07:06:04;;;;;;;23.77;22.10;;;11.30;31.50;;;;;;5000723;28;20190;-60
2023/04/18 07:08:30;;;;;;;22.70;21.07;;;11.30;31.20;;;;;;4990810;28;20264;-60
2023/04/18 07:10:55;;;;;;;22.50;20.90;;;11.30;31.90;;;;;;4992839;28;20507;-61
2023/04/18 07:13:21;;;;;;;23.83;22.17;;;11.30;32.60;;;;;;5009788;28;20173;-60
2023/04/18 07:15:47;;;;;;;22.80;21.30;;;11.00;32.40;;;;;;5010515;28;20200;-62
2023/04/18 07:18:12;;;;;;;22.20;20.80;;;11.10;33.70;;;;;;5011138;28;20425;-59
2023/04/18 07:20:39;;;;;;;21.73;20.33;;;11.10;32.50;;;;;;5011651;28;20182;-60
2023/04/18 07:23:05;;;;;;;22.27;20.67;;;11.10;33.50;;;;;;5010603;28;20681;-60
2023/04/18 07:25:30;;;;;;;21.17;19.77;;;11.20;32.50;;;;;;5008902;28;20427;-60
2023/04/18 07:27:56;;;;;;;21.20;19.70;;;11.20;32.10;;;;;;5010904;28;20459;-60
2023/04/18 07:30:22;;;;;;;21.87;20.00;;;11.30;32.60;;;;;;5011286;28;20207;-60
2023/04/18 07:32:48;;;;;;;21.00;19.53;;;11.30;32.20;;;;;;5009562;28;20412;-60
2023/04/18 07:35:14;;;;;;;21.30;19.80;;;11.30;32.70;;;;;;5011111;28;20591;-61
2023/04/18 07:37:39;;;;;;;23.27;21.67;;;11.30;32.60;;;;;;5011014;28;20847;-61
2023/04/18 07:40:06;;;;;;;21.03;19.73;;;11.40;32.80;;;;;;5010982;28;20260;-60
2023/04/18 07:42:31;;;;;;;22.43;21.07;;;11.40;32.70;;;;;;5009755;28;20181;-60
2023/04/18 07:45:00;;;;;;;21.10;19.80;;;11.50;32.80;;;;;;5010886;28;20416;-61
2023/04/18 07:47:27;;;;;;;21.70;20.30;;;11.50;32.80;;;;;;5010927;28;20201;-63
2023/04/18 07:49:52;;;;;;;22.30;20.70;;;11.60;32.40;;;;;;5010244;28;20511;-62
2023/04/18 07:52:18;;;;;;;21.80;20.37;;;11.60;32.00;;;;;;5014246;28;20415;-61
2023/04/18 07:55:34;;;;;;;22.57;21.17;;;11.60;31.90;;;;;;5014321;28;20213;-61
2023/04/18 07:57:59;;;;;;;21.90;20.40;;;11.70;32.00;;;;;;5014653;28;20231;-60
2023/04/18 08:00:25;;;;;;;21.40;19.90;;;11.60;31.70;;;;;;5014257;28;20847;-60
2023/04/18 08:02:51;;;;;;;21.80;20.40;;;11.60;31.90;;;;;;5012977;28;20292;-59
2023/04/18 08:05:18;;;;;;;22.63;21.13;;;11.70;32.00;;;;;;5014948;28;20177;-59
2023/04/18 08:07:44;;;;;;;21.83;20.30;;;11.60;32.70;;;;;;5013922;28;20946;-59
2023/04/18 08:10:10;;;;;;;22.47;20.97;;;11.60;32.80;;;;;;5014601;28;20943;-60
2023/04/18 08:12:36;;;;;;;21.27;19.87;;;11.60;32.80;;;;;;5014075;28;20408;-61
2023/04/18 08:15:02;;;;;;;23.57;22.03;;;11.60;32.40;;;;;;5015464;28;20169;-58
2023/04/18 08:17:28;;;;;;;22.60;20.90;;;11.70;32.40;;;;;;5013701;28;20933;-60
2023/04/18 08:19:54;;;;;;;23.33;21.83;;;11.70;32.20;;;;;;5013973;28;20416;-60
2023/04/18 08:22:20;;;;;;;21.77;20.20;;;11.70;32.00;;;;;;5013799;28;20184;-60
2023/04/18 08:24:45;;;;;;;22.73;21.20;;;11.60;32.60;;;;;;5015605;28;20212;-58
2023/04/18 08:27:11;;;;;;;20.77;19.37;;;11.60;32.40;;;;;;5014323;28;20178;-60
2023/04/18 08:29:37;;;;;;;22.10;20.50;;;11.70;32.30;;;;;;5014033;28;20670;-70
2023/04/18 08:32:06;;;;;;;23.37;21.87;;;11.70;32.50;;;;;;5013615;28;20218;-60
2023/04/18 08:34:37;;;;;;;23.20;21.63;;;11.90;32.20;;;;;;5014168;28;20213;-60
2023/04/18 08:37:03;;;;;;;21.83;20.33;;;11.90;32.30;;;;;;5014212;28;20419;-60
2023/04/18 08:39:29;;;;;;;21.70;20.40;;;11.90;31.90;;;;;;5014407;28;20420;-60
2023/04/18 08:42:00;;;;;;;21.77;20.37;;;12.00;31.60;;;;;;5013602;28;20623;-60
2023/04/18 08:44:29;;;;;;;22.67;21.17;;;12.00;32.00;;;;;;5014019;28;20419;-60
2023/04/18 08:46:56;;;;;;;22.33;20.97;;;12.00;32.00;;;;;;5013942;28;20941;-60
2023/04/18 08:49:23;;;;;;;22.07;20.67;;;12.10;32.40;;;;;;5013817;28;20513;-60
2023/04/18 08:51:50;;;;;;;23.90;22.10;;;12.20;31.60;;;;;;5013441;28;20444;-60
2023/04/18 08:54:21;;;;;;;21.57;20.03;;;12.20;31.30;;;;;;5013940;28;20412;-59
2023/04/18 08:57:02;;;;;;;21.20;19.90;;;12.30;31.30;;;;;;5013707;28;20507;-59
2023/04/18 08:59:31;;;;;;;20.43;19.17;;;12.20;31.90;;;;;;5007581;28;20797;-60
2023/04/18 09:01:57;;;;;;;23.27;21.60;;;12.30;31.60;;;;;;4992016;28;20425;-60
2023/04/18 09:04:36;;;;;;;22.53;20.87;;;12.30;31.90;;;;;;4993758;28;20496;-60
2023/04/18 09:07:03;;;;;;;21.80;20.40;;;12.50;31.40;;;;;;4994016;28;20416;-60
2023/04/18 09:09:41;;;;;;;22.37;20.87;;;12.50;30.60;;;;;;4993819;28;20453;-59
2023/04/18 09:12:08;;;;;;;22.20;20.70;;;12.60;30.80;;;;;;4993196;28;21000;-61
2023/04/18 09:14:41;;;;;;;23.03;21.20;;;12.60;30.60;;;;;;4992135;28;20788;-59
2023/04/18 09:17:09;;;;;;;21.77;20.33;;;12.60;30.50;;;;;;4992466;28;20972;-59
2023/04/18 09:19:35;;;;;;;24.17;22.43;;;12.60;30.70;;;;;;4992035;28;20420;-60
2023/04/18 09:22:03;;;;;;;23.37;21.77;;;12.60;30.40;;;;;;4990579;28;20520;-60
2023/04/18 09:24:30;;;;;;;22.27;20.77;;;12.50;30.30;;;;;;4993028;28;20228;-59
2023/04/18 09:26:58;;;;;;;22.67;21.10;;;12.50;30.40;;;;;;4993668;28;20429;-60
2023/04/18 09:29:45;;;;;;;23.13;21.60;;;12.40;31.20;;;;;;4993568;28;20468;-59
2023/04/18 09:32:23;;;;;;;23.37;21.77;;;12.40;31.70;;;;;;4992368;28;20944;-60
2023/04/18 09:34:53;;;;;;;22.00;20.60;;;12.40;31.60;;;;;;4993528;28;20420;-59
2023/04/18 09:37:19;;;;;;;22.87;21.33;;;12.50;31.30;;;;;;4993599;28;20475;-59
2023/04/18 09:39:44;;;;;;;22.70;21.07;;;12.50;31.60;;;;;;4993541;28;20437;-60
2023/04/18 09:42:11;;;;;;;21.53;20.10;;;12.50;31.10;;;;;;5012669;28;20420;-60
2023/04/18 09:44:37;;;;;;;22.10;20.40;;;12.60;31.20;;;;;;5012829;28;20188;-60
2023/04/18 09:47:06;;;;;;;22.23;20.63;;;12.70;31.30;;;;;;5012542;28;20424;-59
2023/04/18 09:49:32;;;;;;;22.23;20.80;;;12.70;30.50;;;;;;5012570;28;20823;-59
2023/04/18 09:52:00;;;;;;;24.43;22.57;;;12.70;31.10;;;;;;5011805;28;20439;-59
2023/04/18 09:54:29;;;;;;;26.23;24.10;;;12.70;31.10;;;;;;5008905;28;20185;-59
2023/04/18 09:56:57;;;;;;;22.67;20.87;;;12.70;30.80;;;;;;5009481;28;21064;-59
2023/04/18 09:59:36;;;;;;;23.97;22.33;;;12.60;30.50;;;;;;5009466;28;20925;-59
2023/04/18 10:02:04;;;;;;;23.27;21.67;;;12.50;30.30;;;;;;5008798;28;21185;-59
2023/04/18 10:04:31;;;;;;;21.50;20.07;;;12.50;30.30;;;;;;5009637;28;20448;-58
2023/04/18 10:06:57;;;;;;;25.67;23.77;;;12.50;30.20;;;;;;5009252;28;20926;-58
2023/04/18 10:09:23;;;;;;;23.43;21.73;;;12.60;30.00;;;;;;5008623;28;20487;-59
2023/04/18 10:11:49;;;;;;;24.30;22.60;;;12.60;29.60;;;;;;5008400;28;20504;-59
2023/04/18 10:14:16;;;;;;;24.50;22.80;;;12.70;30.20;;;;;;5008736;28;20174;-60
2023/04/18 10:16:44;;;;;;;22.97;21.50;;;12.80;29.60;;;;;;5009233;28;20425;-60
2023/04/18 10:19:27;;;;;;;29.90;27.80;;;12.80;29.40;;;;;;5011983;28;20456;-58
2023/04/18 10:21:58;;;;;;;22.60;21.20;;;12.90;29.40;;;;;;4989404;28;20448;-59
2023/04/18 10:24:51;;;;;;;22.57;21.17;;;12.90;29.10;;;;;;4992856;28;20436;-59
2023/04/18 10:27:38;;;;;;;21.87;20.30;;;12.80;29.20;;;;;;4992010;28;20440;-60
2023/04/18 10:30:04;;;;;;;20.80;19.50;;;12.80;29.40;;;;;;4980404;28;20500;-60
2023/04/18 10:32:29;;;;;;;20.07;18.77;;;12.90;29.40;;;;;;5010956;28;20424;-58
2023/04/18 10:34:55;;;;;;;19.80;18.40;;;12.90;28.90;;;;;;5011329;28;20959;-59
2023/04/18 10:37:21;;;;;;;19.23;18.03;;;12.90;29.20;;;;;;5011628;28;20614;-59
2023/04/18 10:39:52;;;;;;;19.50;18.30;;;12.90;29.40;;;;;;5010600;28;20641;-59
2023/04/18 10:42:23;;;;;;;20.80;19.50;;;13.00;29.60;;;;;;5010289;28;20549;-59
2023/04/18 10:45:18;;;;;;;20.03;18.73;;;13.00;29.30;;;;;;5010538;28;20435;-59
2023/04/18 10:47:44;;;;;;;20.03;18.70;;;13.10;28.70;;;;;;5011036;28;20424;-59
2023/04/18 10:50:10;;;;;;;19.33;18.03;;;13.10;29.10;;;;;;5011116;28;20936;-59
2023/04/18 10:52:37;;;;;;;20.07;18.77;;;13.00;28.90;;;;;;5010354;28;20181;-60
2023/04/18 10:55:09;;;;;;;20.10;18.70;;;13.10;28.80;;;;;;5010597;28;20424;-60
2023/04/18 10:57:47;;;;;;;21.03;19.63;;;13.10;28.80;;;;;;5008211;28;20542;-59
2023/04/18 11:00:19;;;;;;;20.37;18.97;;;13.10;29.10;;;;;;5012560;28;20405;-60
2023/04/18 11:02:56;;;;;;;18.93;17.77;;;13.20;29.20;;;;;;5009583;28;20436;-60
2023/04/18 11:05:26;;;;;;;19.17;17.97;;;13.30;29.00;;;;;;5011315;28;20420;-59
2023/04/18 11:07:53;;;;;;;17.60;16.53;;;13.30;29.00;;;;;;5010674;28;20420;-60
2023/04/18 11:10:21;;;;;;;19.60;18.40;;;13.50;28.80;;;;;;5010546;28;20541;-60
2023/04/18 11:12:47;;;;;;;17.00;16.00;;;13.50;28.90;;;;;;5009565;28;20504;-60
2023/04/18 11:15:23;;;;;;;19.57;18.30;;;13.50;28.40;;;;;;5006197;28;20449;-61
2023/04/18 11:18:03;;;;;;;36.20;33.10;;;13.60;28.40;;;;;;4990442;28;20416;-59
2023/04/18 11:20:44;;;;;;;17.23;16.13;;;13.80;28.70;;;;;;4991492;28;20492;-59
2023/04/18 11:23:20;;;;;;;15.33;14.33;;;13.80;27.60;;;;;;4990778;28;20807;-60
2023/04/18 11:25:48;;;;;;;15.57;14.67;;;13.80;27.60;;;;;;4990176;28;20933;-59
2023/04/18 11:28:19;;;;;;;16.57;15.57;;;13.80;27.70;;;;;;4991012;28;20461;-59
2023/04/18 11:30:45;;;;;;;15.83;14.83;;;13.90;27.80;;;;;;4990973;28;20501;-59
2023/04/18 11:33:12;;;;;;;15.03;14.13;;;13.90;27.70;;;;;;4990818;28;20425;-60
2023/04/18 11:35:43;;;;;;;14.20;13.40;;;14.00;27.50;;;;;;4991224;28;20412;-59
2023/04/18 11:38:14;;;;;;;13.10;12.30;;;14.00;27.30;;;;;;4991198;28;20425;-59
2023/04/18 11:41:29;;;;;;;13.47;12.57;;;14.00;27.40;;;;;;4999936;28;20786;-60
2023/04/18 11:44:05;;;;;;;15.70;14.80;;;14.00;27.50;;;;;;5010898;28;20503;-59
2023/04/18 11:50:00;;;;;;;14.97;14.07;;;14.00;27.60;;;;;;5012224;28;20978;-62
2023/04/18 11:52:27;;;;;;;16.10;15.20;;;14.00;27.60;;;;;;5010276;28;20412;-61
2023/04/18 11:54:53;;;;;;;15.00;14.10;;;13.90;27.50;;;;;;5010948;28;21032;-61
2023/04/18 11:57:27;;;;;;;13.80;12.60;;;14.00;27.80;;;;;;5010363;28;20444;-62
2023/04/18 11:59:57;;;;;;;12.20;11.60;;;13.90;27.70;;;;;;5010787;28;20412;-61
2023/04/18 12:02:44;;;;;;;13.43;12.73;;;13.90;27.60;;;;;;5010124;28;20943;-62
2023/04/18 12:05:13;;;;;;;14.30;13.40;;;13.90;27.70;;;;;;5010699;28;20471;-61
2023/04/18 12:07:40;;;;;;;11.73;10.83;;;13.90;27.90;;;;;;5010845;28;20424;-61
2023/04/18 12:10:22;;;;;;;12.93;12.03;;;14.00;28.00;;;;;;5010615;28;20499;-61
2023/04/18 12:12:49;;;;;;;12.40;11.60;;;14.00;28.00;;;;;;5009558;28;20424;-61
2023/04/18 12:15:16;;;;;;;12.60;11.83;;;14.00;28.10;;;;;;5009933;28;20417;-61
2023/04/18 12:17:50;;;;;;;13.90;13.00;;;14.10;28.10;;;;;;5009999;28;20401;-61
2023/04/18 12:20:17;;;;;;;14.50;13.37;;;14.10;28.70;;;;;;5010744;28;20777;-62
2023/04/18 12:22:46;;;;;;;14.33;13.33;;;14.10;28.70;;;;;;5010075;28;20856;-62
2023/04/18 12:25:23;;;;;;;12.43;11.63;;;14.10;28.40;;;;;;5009882;28;20880;-61
2023/04/18 12:27:55;;;;;;;11.90;11.10;;;14.10;28.70;;;;;;5009812;28;20413;-61
2023/04/18 12:30:23;;;;;;;13.63;12.70;;;14.00;28.80;;;;;;5010551;28;20416;-61
2023/04/18 12:32:51;;;;;;;12.80;12.07;;;14.10;29.00;;;;;;5009107;28;20474;-61
2023/04/18 12:35:18;;;;;;;13.37;12.47;;;14.10;28.70;;;;;;5010627;28;20408;-61
2023/04/18 12:37:45;;;;;;;11.50;10.90;;;14.10;28.60;;;;;;5012322;28;20408;-61